createdAt,value
2023-05-10T00:01:01.123Z,1.77
2023-05-10T00:03:28.849Z,1.80
2023-05-10T00:05:56.135Z,1.80
2023-05-10T00:08:25.638Z,1.63
2023-05-10T00:10:53.512Z,2.00
2023-05-10T00:13:20.815Z,2.72
2023-05-10T00:15:48.120Z,2.58
2023-05-10T00:18:15.417Z,2.10
2023-05-10T00:20:42.712Z,1.90
2023-05-10T00:23:10.514Z,3.08
2023-05-10T00:25:38.192Z,1.52
2023-05-10T00:28:05.574Z,2.03
2023-05-10T00:30:32.849Z,2.17
2023-05-10T00:33:00.447Z,1.90
2023-05-10T00:35:27.745Z,2.13
2023-05-10T00:37:54.993Z,2.05
2023-05-10T00:40:22.264Z,1.50
2023-05-10T00:42:54.474Z,1.80
2023-05-10T00:45:22.333Z,1.77
2023-05-10T00:47:49.863Z,1.63
2023-05-10T00:50:18.271Z,1.60
2023-05-10T00:52:45.694Z,1.55
2023-05-10T00:55:13.504Z,2.67
2023-05-10T00:57:41.073Z,1.90
2023-05-10T01:00:08.800Z,1.92
2023-05-10T01:02:36.716Z,1.50
2023-05-10T01:05:04.875Z,1.95
2023-05-10T01:07:32.311Z,2.08
2023-05-10T01:09:59.958Z,2.03
2023-05-10T01:12:27.413Z,1.73
2023-05-10T01:14:55.814Z,1.90
2023-05-10T01:17:23.895Z,1.70
2023-05-10T01:19:51.389Z,1.95
2023-05-10T01:22:18.599Z,2.20
2023-05-10T01:24:59.945Z,1.95
2023-05-10T01:27:37.426Z,1.88
2023-05-10T01:30:26.960Z,1.70
2023-05-10T01:32:59.457Z,1.90
2023-05-10T01:35:43.512Z,2.00
2023-05-10T01:38:20.521Z,1.80
2023-05-10T01:40:53.941Z,1.30
2023-05-10T01:43:29.660Z,1.70
2023-05-10T01:46:11.825Z,2.13
2023-05-10T01:48:47.953Z,1.90
2023-05-10T01:51:21.412Z,1.70
2023-05-10T01:53:49.620Z,1.65
2023-05-10T01:56:17.772Z,1.85
2023-05-10T01:58:47.370Z,1.75
2023-05-10T02:01:15.328Z,2.15
2023-05-10T02:03:44.539Z,2.65
2023-05-10T02:06:12.454Z,1.92
2023-05-10T02:08:40.861Z,1.92
2023-05-10T02:11:08.681Z,1.90
2023-05-10T02:13:38.022Z,1.98
2023-05-10T02:16:06.910Z,1.50
2023-05-10T02:18:35.464Z,2.17
2023-05-10T02:21:03.703Z,1.70
2023-05-10T02:23:31.384Z,1.73
2023-05-10T02:25:58.965Z,1.85
2023-05-10T02:28:27.743Z,2.30
2023-05-10T02:30:56.868Z,1.90
2023-05-10T02:33:24.381Z,2.03
2023-05-10T02:35:53.847Z,2.10
2023-05-10T02:38:22.440Z,2.10
2023-05-10T02:40:50.055Z,1.98
2023-05-10T02:43:19.163Z,1.98
2023-05-10T02:45:48.673Z,2.30
2023-05-10T02:48:16.081Z,2.10
2023-05-10T02:50:45.810Z,2.22
2023-05-10T02:53:17.442Z,1.80
2023-05-10T02:55:48.585Z,1.80
2023-05-10T02:58:15.855Z,2.30
2023-05-10T03:00:43.779Z,2.38
2023-05-10T03:03:12.777Z,1.65
2023-05-10T03:05:40.237Z,2.50
2023-05-10T03:08:07.632Z,2.83
2023-05-10T03:10:39.636Z,2.13
2023-05-10T03:13:36.293Z,2.40
2023-05-10T03:16:33.339Z,2.60
2023-05-10T03:19:01.284Z,2.35
2023-05-10T03:21:30.406Z,2.08
2023-05-10T03:24:01.364Z,2.03
2023-05-10T03:26:29.231Z,2.40
2023-05-10T03:29:06.212Z,2.20
2023-05-10T03:31:33.968Z,2.70
2023-05-10T03:34:02.184Z,2.40
2023-05-10T03:36:29.619Z,2.53
2023-05-10T03:38:56.988Z,2.78
2023-05-10T03:41:26.344Z,2.50
2023-05-10T03:43:54.465Z,2.70
2023-05-10T03:46:21.716Z,2.75
2023-05-10T03:48:50.287Z,2.20
2023-05-10T03:51:17.609Z,2.53
2023-05-10T03:53:44.832Z,2.67
2023-05-10T03:56:12.108Z,2.58
2023-05-10T03:58:39.692Z,2.75
2023-05-10T04:01:07.015Z,3.10
2023-05-10T04:03:36.168Z,2.53
2023-05-10T04:06:04.177Z,2.00
2023-05-10T04:08:31.753Z,2.13
2023-05-10T04:11:11.512Z,2.25
2023-05-10T04:13:39.179Z,2.50
2023-05-10T04:16:07.252Z,2.38
2023-05-10T04:18:34.537Z,2.45
2023-05-10T04:21:01.966Z,2.22
2023-05-10T04:23:29.470Z,2.83
2023-05-10T04:26:03.534Z,3.17
2023-05-10T04:28:30.848Z,2.83
2023-05-10T04:31:07.999Z,3.08
2023-05-10T04:33:35.517Z,3.88
2023-05-10T04:36:03.118Z,2.78
2023-05-10T04:38:30.744Z,2.92
2023-05-10T04:41:10.921Z,2.65
2023-05-10T04:43:38.558Z,3.13
2023-05-10T04:46:06.393Z,3.20
2023-05-10T04:48:33.817Z,3.47
2023-05-10T04:51:01.145Z,3.55
2023-05-10T04:53:28.625Z,3.47
2023-05-10T04:55:55.915Z,3.60
2023-05-10T04:58:23.414Z,3.53
2023-05-10T05:00:56.075Z,3.03
2023-05-10T05:03:26.514Z,3.50
2023-05-10T05:05:54.607Z,3.60
2023-05-10T05:08:22.069Z,3.55
2023-05-10T05:10:51.174Z,3.15
2023-05-10T05:13:19.318Z,3.60
2023-05-10T05:15:46.653Z,3.75
2023-05-10T05:18:14.089Z,3.58
2023-05-10T05:20:44.271Z,4.53
2023-05-10T05:23:11.615Z,3.78
2023-05-10T05:25:38.888Z,3.90
2023-05-10T05:28:06.145Z,3.45
2023-05-10T05:30:33.581Z,3.92
2023-05-10T05:33:00.940Z,3.42
2023-05-10T05:35:28.210Z,3.45
2023-05-10T05:37:57.688Z,3.85
2023-05-10T05:40:25.231Z,3.60
2023-05-10T05:42:53.183Z,3.85
2023-05-10T05:45:20.541Z,3.38
2023-05-10T05:47:48.223Z,3.38
2023-05-10T05:50:15.549Z,3.53
2023-05-10T05:52:42.899Z,3.45
2023-05-10T05:55:10.277Z,3.53
2023-05-10T05:57:37.563Z,4.03
2023-05-10T06:00:05.539Z,4.13
2023-05-10T06:02:40.061Z,3.60
2023-05-10T06:05:07.928Z,4.40
2023-05-10T06:07:35.279Z,3.60
2023-05-10T06:10:03.771Z,4.13
2023-05-10T06:12:31.359Z,3.85
2023-05-10T06:14:59.034Z,4.00
2023-05-10T06:17:26.405Z,3.45
2023-05-10T06:19:53.872Z,3.90
2023-05-10T06:22:23.758Z,3.75
2023-05-10T06:24:51.139Z,3.38
2023-05-10T06:27:18.430Z,3.97
2023-05-10T06:29:45.761Z,3.55
2023-05-10T06:32:13.033Z,3.38
2023-05-10T06:34:40.409Z,3.95
2023-05-10T06:37:07.645Z,4.15
2023-05-10T06:39:35.361Z,4.05
2023-05-10T06:42:03.825Z,3.88
2023-05-10T06:44:33.570Z,4.37
2023-05-10T06:47:01.492Z,4.28
2023-05-10T06:49:28.737Z,3.90
2023-05-10T06:51:57.130Z,4.25
2023-05-10T06:54:24.550Z,4.30
2023-05-10T06:56:51.826Z,3.83
2023-05-10T06:59:20.324Z,3.78
2023-05-10T07:01:47.689Z,3.75
2023-05-10T07:04:18.619Z,3.80
2023-05-10T07:06:47.214Z,3.50
2023-05-10T07:09:14.885Z,4.25
2023-05-10T07:11:42.287Z,4.22
2023-05-10T07:14:09.558Z,3.33
2023-05-10T07:16:39.489Z,3.40
2023-05-10T07:19:07.980Z,3.70
2023-05-10T07:21:36.197Z,3.33
2023-05-10T07:24:09.289Z,4.43
2023-05-10T07:26:37.495Z,3.67
2023-05-10T07:29:06.315Z,3.88
2023-05-10T07:38:40.230Z,4.20
2023-05-10T07:41:10.691Z,4.15
2023-05-10T07:46:48.041Z,4.32
2023-05-10T08:02:35.059Z,5.50
2023-05-10T08:05:28.320Z,4.35
2023-05-10T08:07:55.950Z,4.60
2023-05-10T08:10:23.285Z,3.85
2023-05-10T08:12:50.798Z,4.38
2023-05-10T08:15:18.448Z,4.22
2023-05-10T08:17:46.084Z,3.85
2023-05-10T08:20:13.888Z,4.40
2023-05-10T08:22:41.543Z,3.85
2023-05-10T08:25:09.118Z,4.05
2023-05-10T08:27:36.425Z,4.03
2023-05-10T08:30:03.763Z,4.72
2023-05-10T08:32:32.472Z,4.82
2023-05-10T08:34:59.850Z,4.60
2023-05-10T08:37:27.221Z,4.07
2023-05-10T08:39:54.988Z,4.65
2023-05-10T08:42:23.898Z,5.00
2023-05-10T08:44:51.614Z,4.55
2023-05-10T08:47:19.869Z,5.03
2023-05-10T08:49:52.012Z,4.10
2023-05-10T08:52:19.973Z,3.78
2023-05-10T08:54:47.391Z,3.92
2023-05-10T08:57:14.712Z,4.68
2023-05-10T08:59:42.060Z,4.25
2023-05-10T09:02:11.715Z,4.75
2023-05-10T09:04:39.188Z,5.00
2023-05-10T09:07:06.854Z,5.22
2023-05-10T09:09:35.076Z,5.00
2023-05-10T09:12:02.414Z,4.80
2023-05-10T09:14:29.934Z,4.97
2023-05-10T09:16:57.933Z,4.60
2023-05-10T09:19:25.465Z,4.65
2023-05-10T09:21:52.781Z,4.72
2023-05-10T09:24:20.207Z,4.80
2023-05-10T09:26:49.480Z,4.28
2023-05-10T09:29:17.877Z,5.07
2023-05-10T09:31:51.906Z,5.00
2023-05-10T09:34:24.555Z,4.97
2023-05-10T09:36:52.852Z,4.40
2023-05-10T09:39:20.485Z,4.00
2023-05-10T09:41:48.297Z,3.97
2023-05-10T09:44:19.840Z,4.32
2023-05-10T09:46:50.768Z,3.80
2023-05-10T09:49:18.430Z,3.70
2023-05-10T09:51:45.795Z,4.50
2023-05-10T09:54:14.120Z,3.83
2023-05-10T09:56:41.722Z,4.70
2023-05-10T09:59:13.021Z,4.60
2023-05-10T10:01:41.573Z,6.35
2023-05-10T10:04:11.165Z,5.85
2023-05-10T10:06:39.745Z,5.80
2023-05-10T10:09:07.813Z,4.63
2023-05-10T10:11:39.310Z,5.30
2023-05-10T10:14:07.085Z,5.30
2023-05-10T10:16:34.695Z,4.32
2023-05-10T10:19:02.364Z,3.88
2023-05-10T10:21:30.281Z,3.22
2023-05-10T10:23:57.649Z,3.15
2023-05-10T10:26:26.075Z,4.07
2023-05-10T10:29:13.733Z,3.00
2023-05-10T10:31:43.484Z,2.97
2023-05-10T10:34:13.985Z,2.85
2023-05-10T10:36:42.584Z,2.50
2023-05-10T10:39:11.763Z,2.30
2023-05-10T10:41:44.931Z,2.30
2023-05-10T10:44:25.218Z,2.38
2023-05-10T10:47:07.007Z,2.25
2023-05-10T10:49:38.542Z,3.03
2023-05-10T10:52:29.173Z,2.72
2023-05-10T10:55:02.617Z,1.90
2023-05-10T10:57:52.903Z,2.42
2023-05-10T11:00:23.338Z,2.25
2023-05-10T11:02:59.769Z,2.08
2023-05-10T11:05:30.222Z,2.10
2023-05-10T11:07:59.152Z,2.25
2023-05-10T11:10:27.235Z,2.83
2023-05-10T11:13:05.244Z,2.53
2023-05-10T11:15:39.853Z,2.50
2023-05-10T11:18:29.808Z,2.50
2023-05-10T11:21:06.474Z,2.58
2023-05-10T11:23:34.619Z,3.20
2023-05-10T11:26:02.390Z,2.50
2023-05-10T11:28:32.913Z,2.90
2023-05-10T11:31:00.432Z,2.67
2023-05-10T11:33:27.785Z,2.67
2023-05-10T11:35:55.502Z,2.33
2023-05-10T11:38:22.892Z,2.55
2023-05-10T11:40:54.342Z,3.88
2023-05-10T11:43:25.139Z,4.18
2023-05-10T11:45:52.569Z,3.50
2023-05-10T11:48:23.258Z,3.05
2023-05-10T11:50:50.674Z,3.33
2023-05-10T11:53:18.008Z,3.13
2023-05-10T11:55:45.915Z,2.55
2023-05-10T11:58:13.242Z,2.63
2023-05-10T12:00:40.751Z,2.50
2023-05-10T12:03:08.343Z,2.72
2023-05-10T12:05:36.286Z,2.70
2023-05-10T12:08:13.704Z,2.35
2023-05-10T12:10:41.123Z,2.42
2023-05-10T12:13:13.152Z,2.00
2023-05-10T12:15:40.496Z,3.50
2023-05-10T12:18:09.565Z,3.00
2023-05-10T12:20:37.029Z,3.03
2023-05-10T12:23:04.813Z,2.95
2023-05-10T12:25:33.647Z,2.95
2023-05-10T12:28:02.154Z,2.65
2023-05-10T12:30:30.679Z,6.63
2023-05-10T12:33:01.662Z,4.13
2023-05-10T12:35:32.485Z,2.60
2023-05-10T12:38:00.233Z,2.70
2023-05-10T12:40:27.579Z,3.25
2023-05-10T12:42:54.956Z,2.30
2023-05-10T12:45:23.049Z,3.10
2023-05-10T12:47:50.598Z,3.20
2023-05-10T12:50:18.148Z,3.05
2023-05-10T12:52:45.841Z,2.40
2023-05-10T12:55:13.121Z,3.10
2023-05-10T12:57:40.431Z,3.13
2023-05-10T13:00:08.245Z,2.92
2023-05-10T13:02:36.058Z,2.53
2023-05-10T13:05:06.660Z,7.18
2023-05-10T13:07:34.583Z,2.00
2023-05-10T13:10:01.907Z,2.17
2023-05-10T13:12:30.749Z,4.10
2023-05-10T13:14:58.291Z,5.00
2023-05-10T13:17:26.956Z,4.20
2023-05-10T13:19:54.239Z,3.88
2023-05-10T13:22:32.504Z,2.97
2023-05-10T13:25:04.347Z,2.42
2023-05-10T13:27:31.606Z,2.20
2023-05-10T13:30:00.280Z,2.13
2023-05-10T13:32:27.987Z,2.45
2023-05-10T13:34:55.365Z,2.45
2023-05-10T13:37:22.743Z,2.00
2023-05-10T13:39:50.437Z,2.20
2023-05-10T13:42:17.800Z,2.20
2023-05-10T13:44:45.561Z,1.60
2023-05-10T13:47:13.316Z,2.72
2023-05-10T13:49:40.674Z,3.15
2023-05-10T13:52:08.014Z,2.55
2023-05-10T13:54:36.690Z,2.50
2023-05-10T13:57:04.149Z,2.30
2023-05-10T13:59:34.510Z,1.90
2023-05-10T14:02:05.296Z,2.05
2023-05-10T14:04:32.889Z,3.40
2023-05-10T14:07:00.574Z,2.65
2023-05-10T14:09:27.936Z,2.17
2023-05-10T14:11:55.210Z,2.00
2023-05-10T14:14:22.544Z,2.85
2023-05-10T14:16:49.932Z,2.20
2023-05-10T14:19:17.270Z,1.90
2023-05-10T14:21:44.701Z,2.05
2023-05-10T14:24:12.094Z,2.10
2023-05-10T14:26:39.427Z,1.73
2023-05-10T14:29:06.781Z,2.25
2023-05-10T14:31:34.464Z,1.30
2023-05-10T14:34:01.936Z,1.58
2023-05-10T14:36:30.033Z,1.63
2023-05-10T14:38:57.670Z,1.67
2023-05-10T14:41:25.723Z,1.58
2023-05-10T14:43:53.142Z,1.50
2023-05-10T14:46:20.856Z,1.52
2023-05-10T14:48:48.212Z,1.45
2023-05-10T14:51:15.553Z,1.10
2023-05-10T14:53:43.047Z,1.02
2023-05-10T14:56:10.356Z,1.50
2023-05-10T14:58:37.689Z,1.30
2023-05-10T15:01:05.293Z,1.92
2023-05-10T15:03:33.222Z,3.10
2023-05-10T15:06:00.930Z,1.85
2023-05-10T15:08:28.795Z,1.75
2023-05-10T15:10:56.917Z,1.92
2023-05-10T15:13:24.783Z,1.67
2023-05-10T15:15:52.391Z,1.42
2023-05-10T15:18:19.745Z,1.40
2023-05-10T15:20:47.080Z,2.10
2023-05-10T15:23:14.415Z,1.90
2023-05-10T15:25:41.897Z,1.75
2023-05-10T15:28:09.695Z,1.58
2023-05-10T15:30:37.004Z,1.30
2023-05-10T15:33:04.442Z,1.80
2023-05-10T15:35:32.609Z,2.05
2023-05-10T15:38:00.005Z,1.85
2023-05-10T15:40:27.344Z,1.30
2023-05-10T15:42:54.645Z,1.90
2023-05-10T15:45:22.110Z,1.50
2023-05-10T15:47:49.610Z,1.75
2023-05-10T15:50:17.717Z,1.48
2023-05-10T15:52:45.226Z,1.17
2023-05-10T15:55:13.201Z,1.70
2023-05-10T15:57:41.340Z,1.58
2023-05-10T16:00:12.275Z,1.90
2023-05-10T16:02:40.596Z,3.00
2023-05-10T16:05:08.405Z,2.80
2023-05-10T16:07:35.902Z,1.70
2023-05-10T16:10:06.393Z,1.60
2023-05-10T16:12:33.842Z,1.60
2023-05-10T16:15:01.135Z,1.48
2023-05-10T16:17:28.543Z,1.30
2023-05-10T16:19:55.979Z,1.40
2023-05-10T16:22:27.128Z,1.85
2023-05-10T16:24:54.963Z,1.55
2023-05-10T16:27:22.374Z,1.48
2023-05-10T16:29:49.790Z,1.70
2023-05-10T16:32:17.472Z,1.30
2023-05-10T16:34:44.956Z,1.75
2023-05-10T16:37:12.331Z,1.75
2023-05-10T16:39:39.720Z,1.70
2023-05-10T16:42:07.162Z,1.10
2023-05-10T16:44:34.626Z,1.40
2023-05-10T16:47:03.120Z,1.92
2023-05-10T16:49:30.608Z,1.33
2023-05-10T16:51:58.228Z,1.17
2023-05-10T16:54:28.563Z,1.25
2023-05-10T16:56:56.752Z,0.90
2023-05-10T16:59:24.224Z,2.65
2023-05-10T17:01:53.246Z,1.02
2023-05-10T17:04:20.867Z,0.90
2023-05-10T17:06:48.208Z,1.00
2023-05-10T17:09:15.846Z,1.00
2023-05-10T17:11:43.327Z,1.08
2023-05-10T17:14:11.303Z,0.98
2023-05-10T17:16:38.865Z,1.25
2023-05-10T17:19:06.633Z,0.88
2023-05-10T17:21:34.076Z,0.80
2023-05-10T17:24:01.659Z,1.00
2023-05-10T17:26:29.955Z,0.80
2023-05-10T17:28:57.442Z,0.80
2023-05-10T17:31:24.872Z,1.00
2023-05-10T17:33:52.763Z,1.00
2023-05-10T17:36:20.254Z,0.82
2023-05-10T17:38:48.309Z,0.73
2023-05-10T17:41:15.887Z,0.70
2023-05-10T17:43:43.489Z,0.80
2023-05-10T17:46:13.284Z,0.90
2023-05-10T17:48:41.887Z,0.80
2023-05-10T17:51:12.270Z,0.90
2023-05-10T17:53:42.363Z,1.05
2023-05-10T17:56:10.651Z,0.88
2023-05-10T17:58:38.430Z,1.00
2023-05-10T18:01:06.224Z,1.05
2023-05-10T18:03:35.868Z,1.30
2023-05-10T18:06:04.419Z,1.15
2023-05-10T18:08:35.906Z,1.00
2023-05-10T18:11:03.365Z,0.85
2023-05-10T18:13:30.773Z,0.82
2023-05-10T18:15:58.149Z,0.90
2023-05-10T18:18:25.730Z,1.13
2023-05-10T18:20:56.617Z,1.20
2023-05-10T18:23:24.691Z,0.97
2023-05-10T18:25:52.105Z,0.95
2023-05-10T18:28:19.577Z,1.10
2023-05-10T18:30:47.065Z,1.35
2023-05-10T18:33:14.556Z,1.33
2023-05-10T18:35:41.885Z,1.30
2023-05-10T18:38:38.290Z,1.50
2023-05-10T18:41:05.964Z,1.33
2023-05-10T18:43:36.532Z,2.88
2023-05-10T18:46:04.623Z,1.30
2023-05-10T18:48:32.719Z,1.30
2023-05-10T18:51:00.192Z,1.20
2023-05-10T18:53:27.692Z,1.20
2023-05-10T18:55:58.985Z,0.82
2023-05-10T18:58:29.582Z,1.88
2023-05-10T19:00:58.715Z,1.00
2023-05-10T19:03:26.141Z,4.28
2023-05-10T19:05:53.597Z,0.80
2023-05-10T19:08:21.098Z,0.88
2023-05-10T19:10:48.477Z,0.70
2023-05-10T19:13:16.163Z,1.08
2023-05-10T19:15:43.561Z,0.90
2023-05-10T19:18:11.881Z,1.73
2023-05-10T19:20:42.254Z,0.73
2023-05-10T19:23:10.957Z,1.40
2023-05-10T19:25:39.575Z,0.90
2023-05-10T19:28:07.013Z,0.77
2023-05-10T19:30:34.397Z,0.60
2023-05-10T19:33:04.360Z,0.63
2023-05-10T19:35:31.880Z,0.50
2023-05-10T19:37:59.399Z,3.60
2023-05-10T19:40:27.033Z,0.50
2023-05-10T19:42:57.120Z,0.40
2023-05-10T19:45:24.543Z,0.60
2023-05-10T19:47:53.418Z,0.90
2023-05-10T19:50:21.433Z,4.57
2023-05-10T19:52:50.586Z,3.08
2023-05-10T19:55:26.587Z,5.82
2023-05-10T19:57:54.049Z,2.72
2023-05-10T20:00:21.821Z,2.05
2023-05-10T20:02:50.075Z,1.00
2023-05-10T20:05:17.772Z,0.60
2023-05-10T20:07:45.633Z,0.57
2023-05-10T20:10:13.661Z,0.60
2023-05-10T20:12:41.226Z,0.50
2023-05-10T20:15:09.326Z,0.70
2023-05-10T20:17:37.027Z,0.65
2023-05-10T20:20:05.129Z,0.70
2023-05-10T20:22:32.760Z,0.63
2023-05-10T20:25:00.125Z,0.70
2023-05-10T20:27:27.521Z,0.60
2023-05-10T20:29:54.821Z,0.70
2023-05-10T20:32:22.280Z,0.50
2023-05-10T20:34:50.029Z,0.70
2023-05-10T20:37:18.305Z,0.90
2023-05-10T20:39:46.385Z,0.70
2023-05-10T20:42:15.579Z,1.00
2023-05-10T20:44:43.802Z,1.10
2023-05-10T20:47:11.522Z,0.98
2023-05-10T20:49:39.018Z,1.00
2023-05-10T20:52:06.807Z,0.85
2023-05-10T20:54:34.152Z,0.80
2023-05-10T20:57:02.084Z,1.00
2023-05-10T20:59:29.988Z,1.10
2023-05-10T21:01:58.068Z,0.82
2023-05-10T21:04:25.892Z,1.05
2023-05-10T21:06:53.422Z,0.90
2023-05-10T21:09:20.840Z,1.13
2023-05-10T21:11:48.287Z,0.90
2023-05-10T21:14:15.708Z,1.00
2023-05-10T21:16:43.752Z,0.80
2023-05-10T21:19:11.925Z,0.70
2023-05-10T21:21:39.615Z,0.90
2023-05-10T21:24:07.350Z,0.85
2023-05-10T21:26:34.722Z,0.90
2023-05-10T21:29:02.625Z,0.73
2023-05-10T21:31:30.711Z,0.80
2023-05-10T21:33:58.897Z,0.80
2023-05-10T21:36:26.850Z,0.75
2023-05-10T21:38:54.835Z,0.88
2023-05-10T21:41:22.563Z,0.90
2023-05-10T21:43:50.133Z,0.90
2023-05-10T21:46:18.636Z,0.90
2023-05-10T21:48:45.991Z,0.80
2023-05-10T21:51:13.568Z,0.70
2023-05-10T21:53:41.117Z,0.82
2023-05-10T21:56:08.547Z,1.17
2023-05-10T21:58:36.499Z,0.50
2023-05-10T22:01:04.182Z,0.77
2023-05-10T22:03:32.134Z,0.90
2023-05-10T22:05:59.707Z,0.88
2023-05-10T22:08:27.007Z,0.68
2023-05-10T22:10:54.452Z,1.20
2023-05-10T22:13:21.750Z,1.10
2023-05-10T22:15:49.350Z,0.90
2023-05-10T22:18:16.847Z,3.42
2023-05-10T22:20:48.064Z,1.10
2023-05-10T22:23:15.533Z,0.90
2023-05-10T22:25:42.879Z,1.00
2023-05-10T22:28:10.993Z,2.00
2023-05-10T22:30:38.522Z,1.08
2023-05-10T22:33:06.513Z,1.13
2023-05-10T22:35:34.016Z,1.30
2023-05-10T22:38:01.572Z,1.23
2023-05-10T22:40:28.979Z,1.20
2023-05-10T22:42:56.716Z,1.50
2023-05-10T22:45:24.065Z,1.20
2023-05-10T22:47:51.602Z,1.38
2023-05-10T22:50:19.297Z,1.23
2023-05-10T22:52:47.099Z,1.30
2023-05-10T22:55:14.452Z,1.27
2023-05-10T22:57:41.908Z,1.50
2023-05-10T23:00:10.722Z,1.48
2023-05-10T23:02:38.197Z,1.27
2023-05-10T23:05:05.895Z,1.70
2023-05-10T23:07:33.506Z,1.52
2023-05-10T23:10:00.837Z,1.40
2023-05-10T23:12:31.189Z,1.45
2023-05-10T23:14:59.318Z,1.20
2023-05-10T23:17:26.729Z,0.88
2023-05-10T23:19:54.345Z,1.70
2023-05-10T23:22:21.907Z,1.40
2023-05-10T23:24:49.273Z,1.65
2023-05-10T23:27:16.608Z,1.63
2023-05-10T23:29:44.144Z,1.73
2023-05-10T23:32:12.163Z,1.80
2023-05-10T23:34:39.837Z,1.85
2023-05-10T23:37:07.665Z,1.50
2023-05-10T23:39:35.155Z,1.50
2023-05-10T23:42:04.164Z,1.75
2023-05-10T23:44:31.704Z,1.70
2023-05-10T23:46:59.766Z,2.00
2023-05-10T23:49:27.436Z,1.40
2023-05-10T23:51:54.787Z,1.20
2023-05-10T23:54:22.217Z,1.52
2023-05-10T23:56:51.565Z,1.60
2023-05-10T23:59:19.120Z,1.50
